This is the latest recevied weather packets stored in our database for station/object SP2FH-13. If no packets are shown the sender has not sent any weather packets the latest 10 day(s).
| Time | Temp. | Humidity | Pressure | Rain* | Wind** | Luminosity | Snow |
|---|---|---|---|---|---|---|---|
| 1777464794 | 10° C | 30% | 1017.5 hPa | - | - | 222 W/m² | - |
| 1777464492 | 10° C | 29% | 1017.7 hPa | - | - | 752 W/m² | - |
| 1777464191 | 9.44° C | 31% | 1017.8 hPa | - | - | 707 W/m² | - |
| 1777463890 | 10° C | 31% | 1017.8 hPa | - | - | 184 W/m² | - |
| 1777463589 | 10° C | 30% | 1017.7 hPa | - | - | 280 W/m² | - |
| 1777463288 | 9.44° C | 30% | 1017.7 hPa | - | - | 766 W/m² | - |
| 1777462685 | 9.44° C | 33% | 1017.7 hPa | - | - | 165 W/m² | - |
| 1777462384 | 10° C | 32% | 1017.8 hPa | - | - | 243 W/m² | - |
| 1777462083 | 9.44° C | 33% | 1017.8 hPa | - | - | 774 W/m² | - |
| 1777461782 | 8.89° C | 33% | 1017.9 hPa | - | - | 174 W/m² | - |
| 1777461481 | 8.33° C | 34% | 1017.8 hPa | - | - | 787 W/m² | - |
| 1777461180 | 9.44° C | 32% | 1017.7 hPa | - | - | 141 W/m² | - |
| 1777460879 | 10.56° C | 31% | 1017.8 hPa | - | - | 833 W/m² | - |
| 1777460577 | 10° C | 32% | 1017.9 hPa | - | - | 810 W/m² | - |
| 1777460275 | 10° C | 31% | 1018.1 hPa | - | - | 473 W/m² | - |
| 1777459975 | 10° C | 33% | 1017.9 hPa | - | - | 856 W/m² | - |
| 1777459674 | 8.89° C | 33% | 1018 hPa | - | - | 841 W/m² | - |
| 1777459373 | 8.33° C | 34% | 1018 hPa | - | - | 509 W/m² | - |
| 1777459071 | 8.89° C | 34% | 1018 hPa | - | - | 185 W/m² | - |
| 1777458769 | 8.89° C | 34% | 1017.9 hPa | - | - | 853 W/m² | - |
| 1777458468 | 10.56° C | 32% | 1017.7 hPa | - | - | 834 W/m² | - |
| 1777458168 | 10° C | 34% | 1017.9 hPa | - | - | 808 W/m² | - |
| 1777457866 | 8.89° C | 37% | 1018 hPa | - | - | 775 W/m² | - |
| 1777457564 | 7.78° C | 39% | 1018.1 hPa | - | - | 735 W/m² | - |
| 1777457263 | 7.78° C | 40% | 1018.1 hPa | - | - | 222 W/m² | - |
* Rain since midnight (hover to see other rain measurements)
** Current wind speed in m/s (hover to see current wind gust speed)